Time;durP1;ratioP1;P1;durP2;ratioP2;P2;SDS_P1;SDS_P2;PMS_P1;PMS_P2;Temp;Humidity;BMP_temperature;BMP_pressure;BME280_temperature;BME280_humidity;BME280_pressure;Samples;Min_cycle;Max_cycle;Signal;HPM_P1;HPM_P2
2022/06/19 00:00:37;;;;;;;;;;;27.50;93.00;;;;;;5036036;28;20212;-51
2022/06/19 00:03:05;;;;;;;;;;;27.50;93.10;;;;;;5046190;28;19936;-54
2022/06/19 00:05:31;;;;;;;;;;;27.50;93.20;;;;;;5046802;28;19947;-55
2022/06/19 00:07:58;;;;;;;;;;;27.50;93.30;;;;;;5047377;28;19913;-59
2022/06/19 00:10:33;;;;;;;;;;;27.40;93.30;;;;;;5046987;28;20094;-55
2022/06/19 00:12:59;;;;;;;;;;;27.40;93.40;;;;;;5047330;28;19913;-58
2022/06/19 00:15:25;;;;;;;;;;;27.40;93.40;;;;;;5046794;28;19927;-57
2022/06/19 00:17:51;;;;;;;;;;;27.40;93.40;;;;;;5046951;28;20244;-52
2022/06/19 00:20:17;;;;;;;;;;;27.40;93.40;;;;;;5046901;28;19913;-53
2022/06/19 00:22:43;;;;;;;;;;;27.30;93.60;;;;;;5047203;28;19913;-51
2022/06/19 00:25:10;;;;;;;;;;;27.30;93.90;;;;;;5046787;28;19912;-51
2022/06/19 00:27:36;;;;;;;;;;;27.30;94.30;;;;;;5046869;28;19914;-49
2022/06/19 00:30:04;;;;;;;;;;;27.30;94.40;;;;;;5046769;28;19909;-53
2022/06/19 00:32:30;;;;;;;;;;;27.30;94.70;;;;;;5046579;28;19913;-55
2022/06/19 00:34:57;;;;;;;;;;;27.30;94.80;;;;;;5046754;28;19905;-54
2022/06/19 00:37:23;;;;;;;;;;;27.30;94.70;;;;;;5046540;28;19913;-54
2022/06/19 00:39:49;;;;;;;;;;;27.20;94.70;;;;;;5046617;28;19906;-57
2022/06/19 00:42:16;;;;;;;;;;;27.20;94.80;;;;;;5046438;28;19979;-52
2022/06/19 00:44:42;;;;;;;;;;;27.10;94.80;;;;;;5046216;28;20100;-56
2022/06/19 00:47:18;;;;;;;;;;;27.10;94.90;;;;;;5046600;28;19905;-51
2022/06/19 00:49:50;;;;;;;;;;;27.10;94.90;;;;;;5046287;28;20109;-51
2022/06/19 00:52:21;;;;;;;;;;;27.00;94.80;;;;;;5046467;28;20136;-59
2022/06/19 00:54:52;;;;;;;;;;;26.90;94.90;;;;;;5046390;28;20120;-53
2022/06/19 00:57:19;;;;;;;;;;;26.90;94.70;;;;;;5046293;28;20185;-49
2022/06/19 00:59:50;;;;;;;;;;;26.90;94.70;;;;;;5046024;28;19980;-53
2022/06/19 01:02:16;;;;;;;;;;;26.90;94.70;;;;;;5046167;28;19924;-55
2022/06/19 01:04:46;;;;;;;;;;;26.90;94.80;;;;;;5046228;28;20194;-51
2022/06/19 01:07:13;;;;;;;;;;;26.80;94.70;;;;;;5046173;28;19912;-49
2022/06/19 01:09:39;;;;;;;;;;;26.80;94.90;;;;;;5046065;28;19917;-49
2022/06/19 01:12:08;;;;;;;;;;;26.90;94.80;;;;;;5046318;28;19947;-51
2022/06/19 01:14:35;;;;;;;;;;;26.90;94.70;;;;;;5046021;28;19937;-54
2022/06/19 01:17:02;;;;;;;;;;;26.80;94.60;;;;;;5045946;28;19932;-52
2022/06/19 01:19:32;;;;;;;;;;;26.70;94.40;;;;;;5045755;28;19980;-50
2022/06/19 01:22:05;;;;;;;;;;;26.70;94.50;;;;;;5044509;28;19909;-47
2022/06/19 01:24:34;;;;;;;;;;;26.70;94.40;;;;;;5045024;28;19987;-53
2022/06/19 01:27:01;;;;;;;;;;;26.70;94.20;;;;;;5046270;28;20101;-49
2022/06/19 01:29:30;;;;;;;;;;;26.70;94.40;;;;;;5044716;28;19909;-53
2022/06/19 01:31:57;;;;;;;;;;;26.70;94.20;;;;;;5045795;28;19905;-52
2022/06/19 01:34:29;;;;;;;;;;;26.70;94.00;;;;;;5046227;28;19913;-53
2022/06/19 01:37:00;;;;;;;;;;;26.70;94.00;;;;;;5045634;28;20136;-57
2022/06/19 01:39:29;;;;;;;;;;;26.60;93.80;;;;;;5045634;28;19952;-51
2022/06/19 01:41:55;;;;;;;;;;;26.60;93.70;;;;;;5045544;28;19905;-47
2022/06/19 01:44:21;;;;;;;;;;;26.60;93.70;;;;;;5045637;28;19913;-46
2022/06/19 01:46:47;;;;;;;;;;;26.60;93.60;;;;;;5045671;28;19912;-55
2022/06/19 01:49:13;;;;;;;;;;;26.60;93.50;;;;;;5045665;28;20242;-49
2022/06/19 01:51:40;;;;;;;;;;;26.70;93.40;;;;;;5044103;28;19927;-48
2022/06/19 01:54:15;;;;;;;;;;;26.70;93.30;;;;;;5034708;28;20108;-48
2022/06/19 01:56:41;;;;;;;;;;;26.70;93.20;;;;;;5045110;28;19905;-48
2022/06/19 01:59:10;;;;;;;;;;;26.70;93.10;;;;;;5044659;28;19929;-47
2022/06/19 02:01:37;;;;;;;;;;;26.70;93.00;;;;;;5044061;28;19905;-48
2022/06/19 02:04:04;;;;;;;;;;;26.70;92.90;;;;;;5045488;28;19940;-51
2022/06/19 02:06:32;;;;;;;;;;;26.80;92.80;;;;;;5045307;28;19935;-46
2022/06/19 02:09:00;;;;;;;;;;;26.70;92.80;;;;;;5045314;28;19917;-47
2022/06/19 02:11:26;;;;;;;;;;;26.70;92.70;;;;;;5044883;28;19911;-52
2022/06/19 02:13:53;;;;;;;;;;;26.70;92.60;;;;;;5045172;28;19925;-51
2022/06/19 02:16:20;;;;;;;;;;;26.70;92.40;;;;;;5060458;28;20164;-51
2022/06/19 02:18:51;;;;;;;;;;;26.70;92.40;;;;;;5045169;28;19920;-48
2022/06/19 02:21:34;;;;;;;;;;;26.70;92.30;;;;;;5045008;28;19905;-49
2022/06/19 02:24:00;;;;;;;;;;;26.70;92.30;;;;;;5045449;28;19913;-50
2022/06/19 02:26:29;;;;;;;;;;;26.70;92.30;;;;;;5045041;28;19911;-48
2022/06/19 02:28:56;;;;;;;;;;;26.70;92.20;;;;;;5044829;28;19917;-48
2022/06/19 02:31:22;;;;;;;;;;;26.70;92.30;;;;;;5045064;28;20015;-54
2022/06/19 02:33:58;;;;;;;;;;;26.70;92.30;;;;;;5043642;28;19913;-51
2022/06/19 02:36:34;;;;;;;;;;;26.70;92.40;;;;;;5042865;28;19952;-48
2022/06/19 02:39:08;;;;;;;;;;;26.70;92.40;;;;;;5036281;28;20177;-46
2022/06/19 02:41:38;;;;;;;;;;;26.70;92.50;;;;;;5043813;28;20105;-47
2022/06/19 02:44:04;;;;;;;;;;;26.70;92.50;;;;;;5039121;28;19914;-47
2022/06/19 02:46:30;;;;;;;;;;;26.70;92.50;;;;;;5044358;28;19917;-50
2022/06/19 02:48:56;;;;;;;;;;;26.60;92.50;;;;;;5044720;28;19917;-47
2022/06/19 02:51:23;;;;;;;;;;;26.60;92.60;;;;;;5044200;28;19911;-52
2022/06/19 02:53:49;;;;;;;;;;;26.60;92.60;;;;;;5044283;28;19959;-52
2022/06/19 02:56:15;;;;;;;;;;;26.60;92.60;;;;;;5043901;28;20201;-54
2022/06/19 02:58:41;;;;;;;;;;;26.60;92.70;;;;;;5043983;28;19917;-50
2022/06/19 03:01:08;;;;;;;;;;;26.60;92.70;;;;;;5076370;28;19951;-50
2022/06/19 03:03:35;;;;;;;;;;;26.60;92.70;;;;;;5044675;28;19913;-49
2022/06/19 03:06:02;;;;;;;;;;;26.60;92.80;;;;;;5044259;28;19913;-49
2022/06/19 03:08:28;;;;;;;;;;;26.60;92.80;;;;;;5044099;28;19967;-53
2022/06/19 03:10:55;;;;;;;;;;;26.60;92.70;;;;;;5042797;28;19972;-51
2022/06/19 03:13:21;;;;;;;;;;;26.60;92.70;;;;;;5044099;28;19924;-48
2022/06/19 03:15:57;;;;;;;;;;;26.50;92.70;;;;;;5076279;28;19905;-48
2022/06/19 03:18:24;;;;;;;;;;;26.60;92.60;;;;;;5044065;28;19960;-53
2022/06/19 03:20:50;;;;;;;;;;;26.50;92.50;;;;;;5044008;28;19976;-50
2022/06/19 03:23:16;;;;;;;;;;;26.50;92.60;;;;;;5044248;28;19920;-47
2022/06/19 03:25:42;;;;;;;;;;;26.50;92.60;;;;;;5044065;28;20185;-46
2022/06/19 03:28:08;;;;;;;;;;;26.50;92.50;;;;;;5044038;28;20194;-46
2022/06/19 03:30:34;;;;;;;;;;;26.40;92.50;;;;;;5059282;28;19944;-50
2022/06/19 03:33:00;;;;;;;;;;;26.50;92.60;;;;;;5047378;28;19913;-47
2022/06/19 03:35:26;;;;;;;;;;;26.50;92.50;;;;;;5062681;28;19913;-47
2022/06/19 03:37:53;;;;;;;;;;;26.40;92.50;;;;;;5047648;28;20107;-52
2022/06/19 03:40:19;;;;;;;;;;;26.50;92.60;;;;;;5047802;28;19905;-54
2022/06/19 03:42:45;;;;;;;;;;;26.40;92.50;;;;;;5044099;28;19913;-51
2022/06/19 03:45:11;;;;;;;;;;;26.40;92.40;;;;;;5047164;28;19974;-46
2022/06/19 03:47:37;;;;;;;;;;;26.40;92.30;;;;;;5047529;28;19920;-51
2022/06/19 03:50:04;;;;;;;;;;;26.40;92.40;;;;;;5046382;28;19913;-53
2022/06/19 03:52:30;;;;;;;;;;;26.40;92.50;;;;;;5038981;28;19980;-50
2022/06/19 03:54:56;;;;;;;;;;;26.40;92.30;;;;;;5047068;28;19905;-48
2022/06/19 03:57:23;;;;;;;;;;;26.40;92.30;;;;;;5047164;28;19928;-50
2022/06/19 03:59:49;;;;;;;;;;;26.40;92.30;;;;;;5047264;28;19917;-47
2022/06/19 04:02:15;;;;;;;;;;;26.30;92.20;;;;;;5047376;28;19984;-50
2022/06/19 04:04:42;;;;;;;;;;;26.30;92.20;;;;;;5047182;28;19955;-46
2022/06/19 04:07:11;;;;;;;;;;;26.30;92.30;;;;;;5047521;28;19905;-47
2022/06/19 04:09:38;;;;;;;;;;;26.30;92.40;;;;;;5046939;28;19917;-52
2022/06/19 04:12:05;;;;;;;;;;;26.30;92.40;;;;;;5047008;28;19905;-50
2022/06/19 04:14:31;;;;;;;;;;;26.30;92.40;;;;;;5047062;28;19941;-53
2022/06/19 04:17:01;;;;;;;;;;;26.30;92.40;;;;;;5046915;28;19943;-52
2022/06/19 04:19:27;;;;;;;;;;;26.30;92.50;;;;;;5046818;28;19913;-52
2022/06/19 04:21:53;;;;;;;;;;;26.30;92.50;;;;;;5046955;28;19912;-48
2022/06/19 04:24:21;;;;;;;;;;;26.30;92.50;;;;;;5047382;28;19913;-51
2022/06/19 04:26:47;;;;;;;;;;;26.30;92.50;;;;;;5046801;28;19913;-51
2022/06/19 04:29:14;;;;;;;;;;;26.30;92.50;;;;;;5079122;28;19921;-48
2022/06/19 04:31:41;;;;;;;;;;;26.30;92.60;;;;;;5046797;28;19912;-48
2022/06/19 04:34:08;;;;;;;;;;;26.30;92.50;;;;;;5047270;28;20204;-52
2022/06/19 04:36:34;;;;;;;;;;;26.30;92.60;;;;;;5046787;28;19948;-49
2022/06/19 04:39:00;;;;;;;;;;;26.30;92.60;;;;;;5047073;28;19920;-46
2022/06/19 04:41:29;;;;;;;;;;;26.30;92.50;;;;;;5046293;28;19947;-47
2022/06/19 04:43:56;;;;;;;;;;;26.30;92.60;;;;;;5046650;28;19935;-48
2022/06/19 04:46:22;;;;;;;;;;;26.30;92.50;;;;;;5046430;28;19905;-48
2022/06/19 04:48:49;;;;;;;;;;;26.30;92.50;;;;;;5078733;28;20074;-47
2022/06/19 04:51:16;;;;;;;;;;;26.30;92.40;;;;;;5046351;28;19932;-48
2022/06/19 04:53:42;;;;;;;;;;;26.30;92.40;;;;;;5046582;28;19917;-47
2022/06/19 04:56:10;;;;;;;;;;;26.30;92.40;;;;;;5046213;28;19911;-52
2022/06/19 04:58:36;;;;;;;;;;;26.30;92.30;;;;;;5046700;28;19913;-51
2022/06/19 05:01:07;;;;;;;;;;;26.30;92.40;;;;;;5045981;28;19917;-49
2022/06/19 05:03:33;;;;;;;;;;;26.40;92.40;;;;;;5046671;28;20105;-50
2022/06/19 05:05:59;;;;;;;;;;;26.30;92.30;;;;;;5046244;28;19909;-50
2022/06/19 05:08:25;;;;;;;;;;;26.30;92.40;;;;;;5046243;28;19913;-53
2022/06/19 05:10:51;;;;;;;;;;;26.40;92.40;;;;;;5045583;28;19944;-49
2022/06/19 05:13:19;;;;;;;;;;;26.30;92.40;;;;;;5046257;28;20181;-47
2022/06/19 05:15:45;;;;;;;;;;;26.30;92.40;;;;;;5045833;28;19909;-49
2022/06/19 05:18:11;;;;;;;;;;;26.30;92.40;;;;;;5046066;28;19952;-50
2022/06/19 05:20:37;;;;;;;;;;;26.30;92.40;;;;;;5045936;28;19951;-48
2022/06/19 05:23:05;;;;;;;;;;;26.30;92.50;;;;;;5046031;28;20174;-48
2022/06/19 05:25:32;;;;;;;;;;;26.30;92.40;;;;;;5045413;28;19941;-48
2022/06/19 05:27:58;;;;;;;;;;;26.30;92.40;;;;;;5044296;28;19913;-50
2022/06/19 05:30:24;;;;;;;;;;;26.30;92.40;;;;;;5045715;28;19913;-52
2022/06/19 05:32:50;;;;;;;;;;;26.30;92.40;;;;;;5045765;28;20085;-51
2022/06/19 05:35:17;;;;;;;;;;;26.30;92.40;;;;;;5045627;28;19915;-51
2022/06/19 05:37:43;;;;;;;;;;;26.30;92.40;;;;;;5045602;28;19910;-51
2022/06/19 05:40:09;;;;;;;;;;;26.30;92.30;;;;;;5045499;28;20216;-51
2022/06/19 05:42:36;;;;;;;;;;;26.30;92.20;;;;;;5045778;28;19910;-54
2022/06/19 05:45:02;;;;;;;;;;;26.30;92.20;;;;;;5045407;28;20192;-51
2022/06/19 05:47:28;;;;;;;;;;;26.30;92.20;;;;;;5045288;28;19976;-50
2022/06/19 05:49:56;;;;;;;;;;;26.30;92.10;;;;;;5045134;28;19995;-51
2022/06/19 05:52:24;;;;;;;;;;;26.30;92.20;;;;;;5045284;28;20088;-50
2022/06/19 05:54:51;;;;;;;;;;;26.30;92.20;;;;;;5044751;28;20015;-50
2022/06/19 05:57:17;;;;;;;;;;;26.30;92.00;;;;;;5045216;28;19928;-52
2022/06/19 05:59:43;;;;;;;;;;;26.30;92.10;;;;;;5045021;28;19917;-51
2022/06/19 06:02:12;;;;;;;;;;;26.30;92.20;;;;;;5044862;28;19905;-52
2022/06/19 06:04:38;;;;;;;;;;;26.30;92.20;;;;;;5045043;28;20097;-52
2022/06/19 06:07:05;;;;;;;;;;;26.30;92.10;;;;;;5044927;28;20160;-56
2022/06/19 06:09:32;;;;;;;;;;;26.30;92.20;;;;;;5044775;28;20197;-52
2022/06/19 06:11:58;;;;;;;;;;;26.30;92.20;;;;;;5045265;28;19911;-53
2022/06/19 06:14:24;;;;;;;;;;;26.30;92.20;;;;;;5045325;28;20183;-55
2022/06/19 06:16:50;;;;;;;;;;;26.30;92.20;;;;;;5044646;28;19905;-53
2022/06/19 06:19:16;;;;;;;;;;;26.30;92.30;;;;;;5045185;28;19913;-53
2022/06/19 06:21:42;;;;;;;;;;;26.30;92.30;;;;;;5044628;28;19905;-50
2022/06/19 06:24:10;;;;;;;;;;;26.30;92.30;;;;;;5044958;28;19913;-52
2022/06/19 06:26:37;;;;;;;;;;;26.20;92.30;;;;;;5044711;28;19905;-55
2022/06/19 06:29:03;;;;;;;;;;;26.30;92.40;;;;;;5044960;28;19917;-50
2022/06/19 06:31:29;;;;;;;;;;;26.30;92.40;;;;;;5044486;28;19911;-50
2022/06/19 06:33:55;;;;;;;;;;;26.20;92.40;;;;;;5044858;28;19913;-56
2022/06/19 06:36:23;;;;;;;;;;;26.20;92.30;;;;;;5044484;28;19912;-53
2022/06/19 06:38:49;;;;;;;;;;;26.20;92.60;;;;;;5044609;28;20172;-58
2022/06/19 06:41:16;;;;;;;;;;;26.20;92.40;;;;;;5044456;28;19912;-52
2022/06/19 06:43:43;;;;;;;;;;;26.20;92.40;;;;;;5044741;28;19921;-54
2022/06/19 06:46:18;;;;;;;;;;;26.20;92.50;;;;;;5044213;28;19905;-55
2022/06/19 06:48:45;;;;;;;;;;;26.20;92.50;;;;;;5044653;28;19920;-51
2022/06/19 06:51:15;;;;;;;;;;;26.20;92.50;;;;;;5044418;28;19937;-45
2022/06/19 06:53:41;;;;;;;;;;;26.20;92.60;;;;;;5044673;28;19928;-49
2022/06/19 06:56:08;;;;;;;;;;;26.20;92.60;;;;;;5044286;28;19927;-53
2022/06/19 06:58:34;;;;;;;;;;;26.20;92.70;;;;;;5044588;28;19913;-51
2022/06/19 07:01:10;;;;;;;;;;;26.20;92.80;;;;;;5043917;28;19959;-50
2022/06/19 07:03:37;;;;;;;;;;;26.20;92.90;;;;;;5044534;28;19955;-48
2022/06/19 07:06:03;;;;;;;;;;;26.20;93.00;;;;;;5045963;28;19980;-49
2022/06/19 07:08:29;;;;;;;;;;;26.20;93.00;;;;;;5048390;28;19913;-53
2022/06/19 07:10:55;;;;;;;;;;;26.20;93.10;;;;;;5048112;28;19909;-54
2022/06/19 07:13:21;;;;;;;;;;;26.20;93.20;;;;;;5048227;28;19914;-50
2022/06/19 07:15:47;;;;;;;;;;;26.20;93.30;;;;;;5047950;28;19912;-50
2022/06/19 07:18:13;;;;;;;;;;;26.20;93.30;;;;;;5048395;28;19917;-53
2022/06/19 07:20:39;;;;;;;;;;;26.20;93.30;;;;;;5048256;28;20065;-50
2022/06/19 07:23:06;;;;;;;;;;;26.10;93.30;;;;;;5048590;28;19913;-52
2022/06/19 07:25:32;;;;;;;;;;;26.10;93.30;;;;;;5048011;28;19905;-47
2022/06/19 07:27:59;;;;;;;;;;;26.10;93.30;;;;;;5048206;28;19928;-56
2022/06/19 07:30:26;;;;;;;;;;;26.10;93.40;;;;;;5047693;28;20270;-51
2022/06/19 07:32:53;;;;;;;;;;;26.10;93.30;;;;;;5048054;28;19913;-44
2022/06/19 07:35:19;;;;;;;;;;;26.10;93.30;;;;;;5047819;28;19975;-48
2022/06/19 07:37:45;;;;;;;;;;;26.10;93.40;;;;;;5047763;28;20204;-47
2022/06/19 07:40:13;;;;;;;;;;;26.00;93.40;;;;;;5047674;28;19905;-53
2022/06/19 07:42:39;;;;;;;;;;;26.10;93.40;;;;;;5047593;28;20205;-48
2022/06/19 07:45:05;;;;;;;;;;;26.00;93.40;;;;;;5047483;28;19906;-54
2022/06/19 07:50:17;;;;;;;;;;;26.00;93.40;;;;;;5047353;28;19947;-51
2022/06/19 07:52:45;;;;;;;;;;;26.00;93.40;;;;;;5047453;28;19935;-51
2022/06/19 07:55:13;;;;;;;;;;;26.00;93.30;;;;;;5047411;28;19912;-54
2022/06/19 07:57:39;;;;;;;;;;;26.00;93.40;;;;;;5047524;28;19913;-49
2022/06/19 08:00:07;;;;;;;;;;;26.00;93.40;;;;;;5047216;28;19979;-51
2022/06/19 08:02:33;;;;;;;;;;;25.90;93.40;;;;;;5047320;28;20105;-52
2022/06/19 08:04:59;;;;;;;;;;;25.90;93.40;;;;;;5047335;28;19905;-51
2022/06/19 08:07:25;;;;;;;;;;;25.90;93.40;;;;;;5047056;28;19920;-54
2022/06/19 08:09:51;;;;;;;;;;;25.90;93.40;;;;;;5047158;28;19932;-54
2022/06/19 08:12:17;;;;;;;;;;;25.90;93.40;;;;;;5047074;28;19905;-49
2022/06/19 08:14:43;;;;;;;;;;;25.90;93.40;;;;;;5046923;28;19905;-50
2022/06/19 08:17:09;;;;;;;;;;;25.90;93.30;;;;;;5046317;28;19972;-49
2022/06/19 08:19:36;;;;;;;;;;;25.80;93.30;;;;;;5046939;28;19905;-52
2022/06/19 08:22:02;;;;;;;;;;;25.80;93.30;;;;;;5046625;28;20100;-51
2022/06/19 08:24:28;;;;;;;;;;;25.90;93.30;;;;;;5046840;28;20193;-54
2022/06/19 08:26:58;;;;;;;;;;;25.90;93.30;;;;;;5046887;28;19905;-47
2022/06/19 08:29:24;;;;;;;;;;;25.80;93.30;;;;;;5047053;28;19951;-51
2022/06/19 08:31:50;;;;;;;;;;;25.80;93.20;;;;;;5046750;28;19905;-49
2022/06/19 08:34:16;;;;;;;;;;;25.80;93.30;;;;;;5047192;28;20097;-47
2022/06/19 08:36:42;;;;;;;;;;;25.80;93.30;;;;;;5046525;28;19944;-48
2022/06/19 08:39:11;;;;;;;;;;;25.80;93.20;;;;;;5047058;28;19913;-55
2022/06/19 08:41:42;;;;;;;;;;;25.80;93.20;;;;;;5046699;28;19905;-47
2022/06/19 08:44:11;;;;;;;;;;;25.80;93.30;;;;;;5046914;28;19927;-51
2022/06/19 08:46:56;;;;;;;;;;;25.70;93.10;;;;;;5046429;28;20078;-59
2022/06/19 08:49:32;;;;;;;;;;;25.80;93.20;;;;;;5046630;28;19917;-50
2022/06/19 08:51:58;;;;;;;;;;;25.80;93.20;;;;;;5046420;28;19902;-48
2022/06/19 08:54:27;;;;;;;;;;;25.80;93.20;;;;;;5046826;28;20193;-49
2022/06/19 08:57:00;;;;;;;;;;;25.80;93.20;;;;;;5046148;28;19905;-47
2022/06/19 08:59:56;;;;;;;;;;;25.80;93.20;;;;;;5046353;28;19917;-50
2022/06/19 09:02:28;;;;;;;;;;;25.80;93.20;;;;;;5027116;28;19924;-45
2022/06/19 09:07:47;;;;;;;;;;;25.80;93.20;;;;;;5046194;28;19951;-53
2022/06/19 09:10:29;;;;;;;;;;;25.80;93.20;;;;;;5046089;28;20251;-53
2022/06/19 09:13:02;;;;;;;;;;;25.80;93.20;;;;;;5046279;28;20193;-52
2022/06/19 09:15:31;;;;;;;;;;;25.80;93.20;;;;;;5045868;28;19977;-53
2022/06/19 09:17:57;;;;;;;;;;;25.80;93.40;;;;;;5046035;28;19909;-50
2022/06/19 09:20:38;;;;;;;;;;;25.80;93.20;;;;;;5045939;28;19909;-50
2022/06/19 09:23:29;;;;;;;;;;;25.80;93.30;;;;;;5045942;28;19909;-50
2022/06/19 09:25:57;;;;;;;;;;;25.70;93.20;;;;;;5045758;28;19916;-52
2022/06/19 09:28:25;;;;;;;;;;;25.80;93.30;;;;;;5045889;28;20150;-50
2022/06/19 09:31:07;;;;;;;;;;;25.80;93.30;;;;;;5045217;28;19913;-50
2022/06/19 09:33:43;;;;;;;;;;;25.80;93.30;;;;;;5046183;28;19909;-52
2022/06/19 09:36:09;;;;;;;;;;;25.80;93.40;;;;;;5045767;28;20193;-47
2022/06/19 09:38:41;;;;;;;;;;;25.80;93.30;;;;;;5046098;28;19917;-50
2022/06/19 09:41:10;;;;;;;;;;;25.80;93.40;;;;;;5045950;28;20300;-52
2022/06/19 09:43:42;;;;;;;;;;;25.80;93.30;;;;;;5045877;28;20234;-50
2022/06/19 09:46:37;;;;;;;;;;;25.80;93.40;;;;;;5045140;28;19960;-50
2022/06/19 09:49:17;;;;;;;;;;;25.80;93.40;;;;;;5026208;28;20157;-50
2022/06/19 09:51:52;;;;;;;;;;;25.80;93.50;;;;;;5045261;28;20270;-51
2022/06/19 09:54:35;;;;;;;;;;;25.70;93.50;;;;;;5045665;28;19976;-49
2022/06/19 09:57:01;;;;;;;;;;;25.70;93.50;;;;;;5045049;28;19909;-53
2022/06/19 09:59:30;;;;;;;;;;;25.80;93.50;;;;;;5045063;28;19921;-55
2022/06/19 10:01:59;;;;;;;;;;;25.80;93.50;;;;;;5044928;28;19905;-56
2022/06/19 10:04:31;;;;;;;;;;;25.80;93.60;;;;;;5045374;28;19913;-49
2022/06/19 10:06:59;;;;;;;;;;;25.70;93.60;;;;;;5045274;28;19972;-54
2022/06/19 10:09:28;;;;;;;;;;;25.70;93.60;;;;;;5045195;28;19917;-48
2022/06/19 10:11:58;;;;;;;;;;;25.70;93.60;;;;;;5045312;28;19905;-53
2022/06/19 10:14:27;;;;;;;;;;;25.70;93.70;;;;;;5044948;28;20113;-49
2022/06/19 10:16:57;;;;;;;;;;;25.70;93.70;;;;;;5044705;28;19905;-53
2022/06/19 10:19:32;;;;;;;;;;;25.70;93.70;;;;;;5045240;28;19913;-50
2022/06/19 10:22:14;;;;;;;;;;;25.70;93.70;;;;;;5044656;28;19905;-50
2022/06/19 10:24:58;;;;;;;;;;;25.70;93.70;;;;;;5044484;28;19954;-55
2022/06/19 10:27:31;;;;;;;;;;;25.70;93.80;;;;;;5044422;28;19913;-53
2022/06/19 10:30:00;;;;;;;;;;;25.70;93.80;;;;;;5044612;28;19963;-52
2022/06/19 10:32:44;;;;;;;;;;;25.70;93.70;;;;;;5044487;28;20140;-55
2022/06/19 10:35:32;;;;;;;;;;;25.70;93.80;;;;;;5044585;28;20097;-55
2022/06/19 10:38:27;;;;;;;;;;;25.70;93.80;;;;;;5044687;28;20082;-48
2022/06/19 10:42:00;;;;;;;;;;;25.60;93.80;;;;;;5024985;28;19913;-51
2022/06/19 10:44:09;;;;;;;;;;;25.60;93.80;;;;;;5037271;28;20201;-50
2022/06/19 10:46:36;;;;;;;;;;;25.60;93.80;;;;;;5044462;28;19971;-49
2022/06/19 10:49:05;;;;;;;;;;;25.60;93.80;;;;;;5044657;28;20015;-48
2022/06/19 10:51:40;;;;;;;;;;;25.60;93.80;;;;;;5044189;28;19972;-53
2022/06/19 10:54:06;;;;;;;;;;;25.60;93.80;;;;;;5044921;28;19924;-50
2022/06/19 10:56:47;;;;;;;;;;;25.60;93.80;;;;;;5044394;28;19905;-53
2022/06/19 10:59:13;;;;;;;;;;;25.60;93.80;;;;;;5044687;28;19925;-49
2022/06/19 11:04:34;;;;;;;;;;;25.60;93.80;;;;;;5044297;28;20250;-59
2022/06/19 11:07:00;;;;;;;;;;;25.60;93.80;;;;;;5044240;28;19905;-51
2022/06/19 11:09:46;;;;;;;;;;;25.60;93.80;;;;;;5043966;28;19917;-50
2022/06/19 11:12:18;;;;;;;;;;;25.60;93.80;;;;;;5044059;28;20078;-49
2022/06/19 11:14:49;;;;;;;;;;;25.60;93.80;;;;;;5043960;28;19913;-48
2022/06/19 11:17:27;;;;;;;;;;;25.60;93.80;;;;;;5044010;28;20211;-46
2022/06/19 11:19:53;;;;;;;;;;;25.60;93.80;;;;;;5043868;28;20220;-46
2022/06/19 11:22:22;;;;;;;;;;;25.60;94.10;;;;;;5044310;28;19905;-55
2022/06/19 11:24:49;;;;;;;;;;;25.60;93.80;;;;;;5044705;28;20197;-53
2022/06/19 11:27:18;;;;;;;;;;;25.60;93.80;;;;;;5043806;28;19913;-54
2022/06/19 11:29:47;;;;;;;;;;;25.50;93.80;;;;;;5044084;28;20148;-49
2022/06/19 11:32:15;;;;;;;;;;;25.50;93.90;;;;;;5044192;28;19936;-51
2022/06/19 11:34:43;;;;;;;;;;;25.50;93.80;;;;;;5043742;28;19957;-50
2022/06/19 11:37:12;;;;;;;;;;;25.50;93.90;;;;;;5043852;28;20082;-50
2022/06/19 11:39:41;;;;;;;;;;;25.50;93.90;;;;;;5044049;28;19952;-49
2022/06/19 11:42:19;;;;;;;;;;;25.50;94.00;;;;;;5043942;28;20144;-49
2022/06/19 11:44:55;;;;;;;;;;;25.50;94.00;;;;;;5043874;28;19913;-51
2022/06/19 11:47:26;;;;;;;;;;;25.50;94.00;;;;;;5043668;28;19975;-47
2022/06/19 11:50:05;;;;;;;;;;;25.50;94.00;;;;;;5043972;28;19956;-52
2022/06/19 11:52:31;;;;;;;;;;;25.50;94.00;;;;;;5044452;28;20180;-53
2022/06/19 11:54:58;;;;;;;;;;;25.50;94.00;;;;;;5047425;28;20205;-56
2022/06/19 11:57:33;;;;;;;;;;;25.50;94.10;;;;;;5047679;28;20252;-52
2022/06/19 12:00:02;;;;;;;;;;;25.50;94.10;;;;;;5047285;28;20220;-51
2022/06/19 12:02:48;;;;;;;;;;;25.50;94.10;;;;;;5047775;28;19909;-48
2022/06/19 12:05:40;;;;;;;;;;;25.50;94.20;;;;;;5047020;28;20235;-49
2022/06/19 12:08:17;;;;;;;;;;;25.50;94.20;;;;;;5046396;28;20101;-53
2022/06/19 12:10:49;;;;;;;;;;;25.50;94.20;;;;;;5047455;28;19959;-49
2022/06/19 12:13:20;;;;;;;;;;;25.50;94.50;;;;;;5047442;28;19912;-50
2022/06/19 12:15:53;;;;;;;;;;;25.50;94.30;;;;;;5046946;28;19959;-49
2022/06/19 12:18:20;;;;;;;;;;;25.50;94.30;;;;;;5047115;28;19937;-50
2022/06/19 12:20:57;;;;;;;;;;;25.50;94.30;;;;;;5046920;28;19956;-50
2022/06/19 12:23:24;;;;;;;;;;;25.50;94.40;;;;;;5047499;28;19972;-54
2022/06/19 12:25:56;;;;;;;;;;;25.50;94.40;;;;;;5046995;28;19920;-46
2022/06/19 12:28:34;;;;;;;;;;;25.50;94.50;;;;;;5046762;28;19905;-47
2022/06/19 12:31:09;;;;;;;;;;;25.50;94.70;;;;;;5046758;28;19920;-48
2022/06/19 12:33:37;;;;;;;;;;;25.50;94.50;;;;;;5046859;28;19905;-51
2022/06/19 12:36:04;;;;;;;;;;;25.50;94.50;;;;;;5046698;28;19913;-48
2022/06/19 12:38:31;;;;;;;;;;;25.50;94.60;;;;;;5047010;28;20247;-55
2022/06/19 12:41:26;;;;;;;;;;;25.50;94.60;;;;;;5046446;28;20054;-47
2022/06/19 12:44:10;;;;;;;;;;;25.50;94.60;;;;;;5046669;28;19905;-50
2022/06/19 12:46:54;;;;;;;;;;;25.50;94.60;;;;;;5046619;28;19913;-52
2022/06/19 12:49:23;;;;;;;;;;;25.50;94.60;;;;;;5046544;28;19917;-49
2022/06/19 12:51:58;;;;;;;;;;;25.40;94.60;;;;;;5046446;28;19908;-48
2022/06/19 12:54:26;;;;;;;;;;;25.40;94.70;;;;;;5046774;28;19935;-56
2022/06/19 12:57:09;;;;;;;;;;;25.40;94.60;;;;;;5046298;28;19919;-49
2022/06/19 12:59:38;;;;;;;;;;;25.40;94.60;;;;;;5046189;28;20003;-47
2022/06/19 13:02:27;;;;;;;;;;;25.40;94.60;;;;;;5046108;28;19905;-50
2022/06/19 13:04:53;;;;;;;;;;;25.40;94.70;;;;;;5046078;28;19910;-50
2022/06/19 13:07:28;;;;;;;;;;;25.40;94.60;;;;;;5046072;28;19905;-52
2022/06/19 13:10:06;;;;;;;;;;;25.40;94.60;;;;;;5046612;28;19988;-50
2022/06/19 13:12:40;;;;;;;;;;;25.40;94.70;;;;;;5046062;28;19909;-47
2022/06/19 13:15:15;;;;;;;;;;;25.40;94.70;;;;;;5045866;28;19909;-47
2022/06/19 13:18:04;;;;;;;;;;;25.40;94.70;;;;;;5046086;28;19909;-50
2022/06/19 13:20:34;;;;;;;;;;;25.50;94.80;;;;;;5043008;28;19984;-46
2022/06/19 13:23:03;;;;;;;;;;;25.50;94.80;;;;;;5046027;28;19952;-50
2022/06/19 13:25:35;;;;;;;;;;;25.50;94.90;;;;;;5045659;28;19909;-49
2022/06/19 13:28:07;;;;;;;;;;;25.50;94.90;;;;;;5045691;28;19909;-47
2022/06/19 13:30:43;;;;;;;;;;;25.50;94.80;;;;;;5045444;28;19948;-46
2022/06/19 13:33:11;;;;;;;;;;;25.50;94.80;;;;;;5045840;28;19909;-47
2022/06/19 13:35:38;;;;;;;;;;;25.50;94.70;;;;;;5045554;28;19909;-50
2022/06/19 13:38:19;;;;;;;;;;;25.50;94.60;;;;;;5046035;28;19915;-50
2022/06/19 13:40:47;;;;;;;;;;;25.50;94.60;;;;;;5045736;28;19915;-53
2022/06/19 13:43:32;;;;;;;;;;;25.50;94.60;;;;;;5045872;28;19980;-48
2022/06/19 13:46:16;;;;;;;;;;;25.50;94.50;;;;;;5045373;28;20221;-50
2022/06/19 13:48:54;;;;;;;;;;;25.50;94.40;;;;;;5045778;28;20089;-50
2022/06/19 13:51:20;;;;;;;;;;;25.50;94.40;;;;;;5045115;28;19913;-50
2022/06/19 13:54:09;;;;;;;;;;;25.50;94.30;;;;;;5045722;28;19984;-50
2022/06/19 13:56:40;;;;;;;;;;;25.50;94.30;;;;;;5042387;28;19944;-55
2022/06/19 13:59:32;;;;;;;;;;;25.60;94.30;;;;;;5045688;28;19916;-48
2022/06/19 14:01:58;;;;;;;;;;;25.60;94.30;;;;;;5044985;28;19945;-48
2022/06/19 14:05:01;;;;;;;;;;;25.60;94.30;;;;;;5045470;28;19963;-51
2022/06/19 14:07:33;;;;;;;;;;;25.60;94.20;;;;;;5046555;28;19956;-51
2022/06/19 14:09:59;;;;;;;;;;;25.60;94.10;;;;;;5045005;28;19913;-51
2022/06/19 14:12:29;;;;;;;;;;;25.70;94.20;;;;;;5044864;28;20090;-51
2022/06/19 14:14:59;;;;;;;;;;;25.60;94.20;;;;;;5044442;28;19913;-53
2022/06/19 14:17:36;;;;;;;;;;;25.60;94.10;;;;;;5044881;28;19906;-55
2022/06/19 14:20:12;;;;;;;;;;;25.70;94.10;;;;;;5044721;28;20195;-51
2022/06/19 14:22:57;;;;;;;;;;;25.70;94.10;;;;;;5044834;28;19913;-51
2022/06/19 14:25:46;;;;;;;;;;;25.70;93.80;;;;;;5044635;28;19945;-50
2022/06/19 14:28:17;;;;;;;;;;;25.70;93.90;;;;;;5044265;28;19983;-48
2022/06/19 14:30:45;;;;;;;;;;;25.70;93.90;;;;;;5044429;28;19917;-52
2022/06/19 14:33:50;;;;;;;;;;;25.70;93.80;;;;;;5044854;28;20243;-50
2022/06/19 14:36:16;;;;;;;;;;;25.70;93.80;;;;;;5023201;28;20202;-51
2022/06/19 14:38:42;;;;;;;;;;;25.70;93.80;;;;;;5022841;28;19906;-49
2022/06/19 14:41:13;;;;;;;;;;;25.70;93.70;;;;;;5033058;28;19925;-46